createdAt,value
2023-04-26T00:26:23.598Z,98845.00
2023-04-26T00:28:51.563Z,98845.59
2023-04-26T00:31:19.635Z,98847.81
2023-04-26T00:33:47.541Z,98838.94
2023-04-26T00:36:16.940Z,98846.19
2023-04-26T00:38:44.708Z,98841.56
2023-04-26T00:41:12.508Z,98839.94
2023-04-26T00:43:41.972Z,98841.78
2023-04-26T00:46:10.781Z,98841.25
2023-04-26T00:48:39.316Z,98843.09
2023-04-26T00:51:07.936Z,98846.50
2023-04-26T00:53:36.398Z,98847.94
2023-04-26T00:56:05.056Z,98846.38
2023-04-26T00:58:33.469Z,98836.19
2023-04-26T01:01:03.134Z,98846.19
2023-04-26T01:03:31.329Z,98843.41
2023-04-26T01:06:00.135Z,98844.56
2023-04-26T01:08:28.044Z,98845.38
2023-04-26T01:11:00.008Z,98842.44
2023-04-26T01:13:28.271Z,98843.44
2023-04-26T01:15:57.323Z,98837.75
2023-04-26T01:18:26.612Z,98841.03
2023-04-26T01:20:56.864Z,98844.78
2023-04-26T01:23:26.082Z,98838.50
2023-04-26T01:25:56.224Z,98830.22
2023-04-26T01:28:24.088Z,98837.03
2023-04-26T01:30:51.900Z,98832.06
2023-04-26T01:33:19.711Z,98824.28
2023-04-26T01:35:47.416Z,98828.63
2023-04-26T01:38:16.162Z,98828.34
2023-04-26T01:40:46.189Z,98835.13
2023-04-26T01:43:15.486Z,98829.25
2023-04-26T01:45:43.228Z,98828.53
2023-04-26T01:48:29.331Z,98834.41
2023-04-26T01:50:57.054Z,98818.72
2023-04-26T01:53:24.823Z,98824.41
2023-04-26T01:55:55.396Z,98822.59
2023-04-26T01:58:23.328Z,98826.84
2023-04-26T02:00:51.133Z,98830.59
2023-04-26T02:03:19.114Z,98842.50
2023-04-26T02:05:46.921Z,98835.53
2023-04-26T02:08:14.721Z,98835.22
2023-04-26T02:10:42.475Z,98835.34
2023-04-26T02:13:11.640Z,98831.63
2023-04-26T02:15:39.547Z,98825.22
2023-04-26T02:18:07.472Z,98833.16
2023-04-26T02:20:37.903Z,98829.94
2023-04-26T02:23:05.664Z,98820.59
2023-04-26T02:25:33.891Z,98826.88
2023-04-26T02:28:01.645Z,98829.03
2023-04-26T02:30:31.543Z,98825.22
2023-04-26T02:33:00.165Z,98833.03
2023-04-26T02:35:32.169Z,98832.06
2023-04-26T02:38:00.222Z,98843.44
2023-04-26T02:40:28.291Z,98845.16
2023-04-26T02:42:56.831Z,98855.91
2023-04-26T02:45:24.832Z,98861.09
2023-04-26T02:47:54.088Z,98861.09
2023-04-26T02:50:22.311Z,98863.78
2023-04-26T02:52:51.323Z,98866.22
2023-04-26T02:55:19.221Z,98865.41
2023-04-26T02:57:47.064Z,98860.09
2023-04-26T03:00:15.120Z,98871.34
2023-04-26T03:02:43.142Z,98871.69
2023-04-26T03:05:13.362Z,98870.56
2023-04-26T03:07:42.115Z,98872.78
2023-04-26T03:10:13.760Z,98873.91
2023-04-26T03:12:42.387Z,98879.09
2023-04-26T03:15:10.678Z,98865.88
2023-04-26T03:17:40.559Z,98869.00
2023-04-26T03:20:10.975Z,98866.31
2023-04-26T03:22:40.700Z,98866.69
2023-04-26T03:25:09.447Z,98874.66
2023-04-26T03:27:37.283Z,98872.31
2023-04-26T03:30:06.098Z,98871.34
2023-04-26T03:32:35.646Z,98880.47
2023-04-26T03:35:04.565Z,98881.09
2023-04-26T03:37:33.534Z,98884.38
2023-04-26T03:40:09.736Z,98878.25
2023-04-26T03:42:37.624Z,98877.13
2023-04-26T03:45:06.458Z,98884.31
2023-04-26T03:47:34.209Z,98875.31
2023-04-26T03:50:02.500Z,98877.44
2023-04-26T03:52:31.021Z,98877.78
2023-04-26T03:54:58.828Z,98872.50
2023-04-26T03:57:28.079Z,98877.81
2023-04-26T03:59:56.211Z,98880.00
2023-04-26T04:02:24.132Z,98886.94
2023-04-26T04:04:52.342Z,98881.00
2023-04-26T04:07:21.699Z,98885.69
2023-04-26T04:09:49.681Z,98883.75
2023-04-26T04:12:17.498Z,98873.63
2023-04-26T04:14:47.334Z,98866.94
2023-04-26T04:17:15.126Z,98868.13
2023-04-26T04:19:43.098Z,98862.72
2023-04-26T04:22:10.940Z,98857.19
2023-04-26T04:24:39.481Z,98855.56
2023-04-26T04:27:07.799Z,98847.53
2023-04-26T04:29:36.286Z,98856.75
2023-04-26T04:32:06.157Z,98867.44
2023-04-26T04:34:36.167Z,98873.06
2023-04-26T04:37:04.982Z,98879.56
2023-04-26T04:39:33.866Z,98891.28
2023-04-26T04:42:02.645Z,98889.47
2023-04-26T04:44:31.474Z,98889.81
2023-04-26T04:46:59.516Z,98890.81
2023-04-26T04:49:28.903Z,98888.78
2023-04-26T04:51:57.409Z,98885.41
2023-04-26T04:54:25.483Z,98883.66
2023-04-26T04:56:53.361Z,98878.19
2023-04-26T04:59:21.315Z,98894.13
2023-04-26T05:01:50.833Z,98902.94
2023-04-26T05:04:20.080Z,98917.44
2023-04-26T05:06:51.145Z,98913.28
2023-04-26T05:09:19.632Z,98908.41
2023-04-26T05:11:47.504Z,98907.69
2023-04-26T05:14:16.600Z,98912.72
2023-04-26T05:16:44.514Z,98907.66
2023-04-26T05:19:13.412Z,98911.25
2023-04-26T05:21:41.625Z,98913.13
2023-04-26T05:24:11.153Z,98908.53
2023-04-26T05:26:38.952Z,98911.53
2023-04-26T05:29:26.179Z,98913.47
2023-04-26T05:32:05.155Z,98916.06
2023-04-26T05:34:48.655Z,98916.88
2023-04-26T05:37:18.204Z,98924.88
2023-04-26T05:39:47.342Z,98934.66
2023-04-26T05:42:17.852Z,98921.28
2023-04-26T05:44:46.461Z,98916.00
2023-04-26T05:47:14.414Z,98906.97
2023-04-26T05:50:32.635Z,98923.69
2023-04-26T05:53:00.681Z,98933.97
2023-04-26T05:55:29.953Z,98937.81
2023-04-26T05:57:58.457Z,98940.78
2023-04-26T06:00:26.902Z,98942.06
2023-04-26T06:02:55.002Z,98940.81
2023-04-26T06:05:23.250Z,98939.53
2023-04-26T06:07:51.900Z,98930.13
2023-04-26T06:10:19.815Z,98932.22
2023-04-26T06:12:49.236Z,98914.53
2023-04-26T06:15:18.434Z,98931.28
2023-04-26T06:17:46.371Z,98937.97
2023-04-26T06:20:14.262Z,98944.50
2023-04-26T06:22:42.149Z,98934.50
2023-04-26T06:25:12.749Z,98947.03
2023-04-26T06:27:40.602Z,98943.19
2023-04-26T06:30:11.001Z,98935.72
2023-04-26T06:32:45.984Z,98944.91
2023-04-26T06:35:15.280Z,98947.25
2023-04-26T06:37:43.176Z,98962.03
2023-04-26T06:40:14.022Z,98964.69
2023-04-26T06:42:41.932Z,98951.75
2023-04-26T06:45:27.081Z,98949.19
2023-04-26T06:47:55.742Z,98954.06
2023-04-26T06:50:25.528Z,98951.06
2023-04-26T06:52:53.358Z,98936.81
2023-04-26T06:55:21.196Z,98939.38
2023-04-26T06:57:50.839Z,98942.28
2023-04-26T07:00:19.057Z,98936.19
2023-04-26T07:02:48.298Z,98924.88
2023-04-26T07:05:16.524Z,98925.22
2023-04-26T07:07:47.312Z,98924.81
2023-04-26T07:10:21.114Z,98918.09
2023-04-26T07:12:48.925Z,98919.63
2023-04-26T07:15:16.667Z,98916.75
2023-04-26T07:17:44.449Z,98921.25
2023-04-26T07:20:15.692Z,98903.25
2023-04-26T07:22:43.649Z,98907.50
2023-04-26T07:25:11.510Z,98901.69
2023-04-26T07:27:39.370Z,98898.34
2023-04-26T07:30:08.328Z,98900.81
2023-04-26T07:32:36.481Z,98897.84
2023-04-26T07:35:07.281Z,98907.72
2023-04-26T07:37:36.561Z,98891.69
2023-04-26T07:40:05.856Z,98889.28
2023-04-26T07:42:33.587Z,98895.53
2023-04-26T07:45:01.570Z,98894.50
2023-04-26T07:47:29.401Z,98895.84
2023-04-26T07:49:57.314Z,98892.69
2023-04-26T07:52:24.990Z,98883.69
2023-04-26T07:54:54.156Z,98889.53
2023-04-26T07:57:21.977Z,98892.31
2023-04-26T07:59:49.813Z,98897.72
2023-04-26T08:02:18.107Z,98894.66
2023-04-26T08:04:49.661Z,98901.47
2023-04-26T08:07:17.551Z,98892.13
2023-04-26T08:09:45.635Z,98896.44
2023-04-26T08:12:14.904Z,98894.88
2023-04-26T08:14:42.790Z,98896.28
2023-04-26T08:17:10.703Z,98896.59
2023-04-26T08:19:38.847Z,98898.31
2023-04-26T08:22:07.277Z,98905.44
2023-04-26T08:24:35.102Z,98892.38
2023-04-26T08:27:03.796Z,98899.53
2023-04-26T08:29:33.054Z,98903.41
2023-04-26T08:32:00.862Z,98894.44
2023-04-26T08:34:29.430Z,98899.88
2023-04-26T08:36:57.269Z,98893.69
2023-04-26T08:39:25.111Z,98894.59
2023-04-26T08:41:55.516Z,98897.69
2023-04-26T08:44:24.388Z,98897.06
2023-04-26T08:47:07.698Z,98909.44
2023-04-26T08:49:42.152Z,98902.69
2023-04-26T08:52:11.951Z,98898.19
2023-04-26T08:54:40.872Z,98898.53
2023-04-26T08:57:09.763Z,98904.88
2023-04-26T08:59:39.338Z,98901.47
2023-04-26T09:02:10.835Z,98894.38
2023-04-26T09:04:38.845Z,98907.88
2023-04-26T09:07:08.498Z,98899.09
2023-04-26T09:09:38.893Z,98893.84
2023-04-26T09:12:07.169Z,98892.59
2023-04-26T09:14:35.143Z,98887.53
2023-04-26T09:17:03.577Z,98882.00
2023-04-26T09:19:40.214Z,98880.09
2023-04-26T09:22:08.917Z,98884.13
2023-04-26T09:24:50.315Z,98882.00
2023-04-26T09:27:18.250Z,98878.88
2023-04-26T09:30:00.334Z,98873.31
2023-04-26T09:32:29.216Z,98873.84
2023-04-26T09:34:58.422Z,98869.28
2023-04-26T09:37:26.099Z,98870.03
2023-04-26T09:39:54.986Z,98868.13
2023-04-26T09:42:22.713Z,98866.69
2023-04-26T09:44:51.811Z,98865.38
2023-04-26T09:47:22.888Z,98869.16
2023-04-26T09:49:52.489Z,98858.91
2023-04-26T09:52:21.801Z,98851.34
2023-04-26T09:54:51.708Z,98856.19
2023-04-26T09:57:22.204Z,98868.25
2023-04-26T09:59:54.385Z,98863.72
2023-04-26T10:02:24.767Z,98860.44
2023-04-26T10:04:54.080Z,98860.94
2023-04-26T10:07:25.316Z,98856.94
2023-04-26T10:09:58.372Z,98864.88
2023-04-26T10:12:26.166Z,98862.47
2023-04-26T10:14:53.904Z,98848.81
2023-04-26T10:17:21.832Z,98859.94
2023-04-26T10:19:54.834Z,98855.81
2023-04-26T10:22:26.882Z,98845.06
2023-04-26T10:24:55.766Z,98854.59
2023-04-26T10:27:48.837Z,98856.91
2023-04-26T10:30:17.441Z,98852.09
2023-04-26T10:33:14.966Z,98842.66
2023-04-26T10:36:15.173Z,98857.19
2023-04-26T10:39:20.409Z,98845.31
2023-04-26T10:41:48.724Z,98834.66
2023-04-26T10:44:39.958Z,98840.53
2023-04-26T10:47:09.013Z,98833.03
2023-04-26T10:49:48.444Z,98826.56
2023-04-26T10:52:20.031Z,98828.13
2023-04-26T10:54:54.491Z,98822.69
2023-04-26T10:57:23.306Z,98814.41
2023-04-26T11:00:37.268Z,98816.03
2023-04-26T11:03:08.842Z,98827.59
2023-04-26T11:05:43.755Z,98815.72
2023-04-26T11:08:17.782Z,98824.28
2023-04-26T11:10:52.071Z,98817.28
2023-04-26T11:13:20.502Z,98806.88
2023-04-26T11:15:52.018Z,98806.53
2023-04-26T11:18:21.874Z,98801.22
2023-04-26T11:20:49.897Z,98798.59
2023-04-26T11:23:20.276Z,98797.16
2023-04-26T11:25:49.587Z,98792.22
2023-04-26T11:28:19.525Z,98785.59
2023-04-26T11:30:47.294Z,98791.25
2023-04-26T11:33:19.630Z,98782.69
2023-04-26T11:35:48.605Z,98784.38
2023-04-26T11:38:16.559Z,98771.94
2023-04-26T11:40:44.957Z,98760.31
2023-04-26T11:43:15.454Z,98761.28
2023-04-26T11:45:43.544Z,98765.34
2023-04-26T11:48:13.722Z,98754.28
2023-04-26T11:50:42.665Z,98761.31
2023-04-26T11:53:10.603Z,98762.22
2023-04-26T11:55:40.644Z,98757.59
2023-04-26T11:58:15.933Z,98747.44
2023-04-26T12:01:00.475Z,98747.19
2023-04-26T12:03:32.282Z,98750.44
2023-04-26T12:06:01.214Z,98745.41
2023-04-26T12:08:29.102Z,98745.78
2023-04-26T12:11:01.075Z,98754.03
2023-04-26T12:13:31.896Z,98744.28
2023-04-26T12:16:00.182Z,98750.63
2023-04-26T12:18:33.904Z,98746.41
2023-04-26T12:21:02.328Z,98750.84
2023-04-26T12:23:39.378Z,98740.72
2023-04-26T12:26:10.795Z,98747.78
2023-04-26T12:28:40.053Z,98744.44
2023-04-26T12:31:08.400Z,98743.09
2023-04-26T12:33:37.020Z,98746.31
2023-04-26T12:36:09.451Z,98749.41
2023-04-26T12:38:37.502Z,98745.09
2023-04-26T12:41:05.613Z,98749.91
2023-04-26T12:43:33.520Z,98747.13
2023-04-26T12:46:02.713Z,98751.75
2023-04-26T12:48:30.795Z,98743.78
2023-04-26T12:50:58.573Z,98746.94
2023-04-26T12:53:27.767Z,98741.88
2023-04-26T12:55:56.280Z,98738.13
2023-04-26T12:58:25.408Z,98742.06
2023-04-26T13:00:53.505Z,98733.25
2023-04-26T13:03:22.815Z,98742.19
2023-04-26T13:05:52.773Z,98747.72
2023-04-26T13:08:20.716Z,98744.22
2023-04-26T13:10:48.411Z,98734.94
2023-04-26T13:13:16.173Z,98737.75
2023-04-26T13:15:44.169Z,98735.94
2023-04-26T13:18:12.351Z,98726.66
2023-04-26T13:20:41.747Z,98730.50
2023-04-26T13:23:10.798Z,98726.34
2023-04-26T13:25:39.118Z,98720.84
2023-04-26T13:28:06.918Z,98723.63
2023-04-26T13:30:34.742Z,98715.19
2023-04-26T13:33:02.607Z,98722.94
2023-04-26T13:35:30.595Z,98718.81
2023-04-26T13:38:02.332Z,98727.03
2023-04-26T13:40:30.203Z,98720.31
2023-04-26T13:42:58.457Z,98726.50
2023-04-26T13:45:26.414Z,98725.94
2023-04-26T13:47:54.220Z,98724.84
2023-04-26T13:50:22.014Z,98718.97
2023-04-26T13:52:50.959Z,98718.53
2023-04-26T13:55:19.993Z,98723.03
2023-04-26T13:57:47.838Z,98731.66
2023-04-26T14:00:16.968Z,98723.50
2023-04-26T14:02:47.362Z,98721.41
2023-04-26T14:05:15.373Z,98715.59
2023-04-26T14:07:43.400Z,98723.56
2023-04-26T14:10:12.085Z,98718.13
2023-04-26T14:12:41.435Z,98720.28
2023-04-26T14:15:09.957Z,98709.84
2023-04-26T14:17:37.813Z,98708.41
2023-04-26T14:20:08.261Z,98707.38
2023-04-26T14:22:36.043Z,98705.25
2023-04-26T14:25:04.120Z,98702.41
2023-04-26T14:27:31.972Z,98706.19
2023-04-26T14:30:01.074Z,98694.28
2023-04-26T14:32:28.873Z,98695.06
2023-04-26T14:34:56.874Z,98695.88
2023-04-26T14:37:24.678Z,98693.69
2023-04-26T14:39:55.050Z,98697.81
2023-04-26T14:42:23.236Z,98705.78
2023-04-26T14:44:51.260Z,98702.28
2023-04-26T14:47:20.470Z,98702.69
2023-04-26T14:49:48.255Z,98709.19
2023-04-26T14:52:19.666Z,98713.72
2023-04-26T14:54:51.724Z,98703.13
2023-04-26T14:57:19.575Z,98699.47
2023-04-26T14:59:48.182Z,98696.34
2023-04-26T15:02:16.121Z,98701.06
2023-04-26T15:04:45.649Z,98700.94
2023-04-26T15:07:24.912Z,98697.84
2023-04-26T15:09:59.400Z,98689.75
2023-04-26T15:12:29.569Z,98688.84
2023-04-26T15:14:58.942Z,98691.38
2023-04-26T15:17:27.193Z,98694.09
2023-04-26T15:19:56.470Z,98691.09
2023-04-26T15:22:24.331Z,98679.16
2023-04-26T15:24:52.247Z,98684.44
2023-04-26T15:27:20.103Z,98683.72
2023-04-26T15:29:48.034Z,98681.72
2023-04-26T15:32:15.754Z,98680.03
2023-04-26T15:34:45.183Z,98678.00
2023-04-26T15:37:16.318Z,98676.50
2023-04-26T15:39:44.151Z,98671.63
2023-04-26T15:42:12.178Z,98673.28
2023-04-26T15:44:39.916Z,98681.47
2023-04-26T15:47:07.843Z,98687.25
2023-04-26T15:49:35.713Z,98674.53
2023-04-26T15:52:03.453Z,98676.28
2023-04-26T15:54:33.763Z,98671.41
2023-04-26T15:57:02.700Z,98674.00
2023-04-26T15:59:30.709Z,98674.97
2023-04-26T16:01:58.455Z,98675.31
2023-04-26T16:04:26.378Z,98668.44
2023-04-26T16:06:54.978Z,98670.41
2023-04-26T16:09:25.385Z,98675.38
2023-04-26T16:11:55.106Z,98681.88
2023-04-26T16:14:23.210Z,98672.09
2023-04-26T16:16:51.087Z,98673.16
2023-04-26T16:19:18.988Z,98672.84
2023-04-26T16:21:47.110Z,98674.97
2023-04-26T16:24:14.904Z,98671.38
2023-04-26T16:26:42.745Z,98665.81
2023-04-26T16:29:11.894Z,98675.78
2023-04-26T16:31:40.364Z,98679.00
2023-04-26T16:34:08.192Z,98674.59
2023-04-26T16:36:36.313Z,98669.19
2023-04-26T16:39:04.081Z,98669.63
2023-04-26T16:41:31.795Z,98669.91
2023-04-26T16:43:59.548Z,98664.28
2023-04-26T16:46:29.033Z,98673.22
2023-04-26T16:48:56.869Z,98666.03
2023-04-26T16:51:24.817Z,98664.81
2023-04-26T16:53:52.600Z,98672.25
2023-04-26T16:56:20.832Z,98673.25
2023-04-26T16:58:48.610Z,98668.25
2023-04-26T17:01:16.653Z,98671.19
2023-04-26T17:03:46.564Z,98677.97
2023-04-26T17:06:14.474Z,98684.66
2023-04-26T17:08:42.302Z,98689.91
2023-04-26T17:11:10.438Z,98685.31
2023-04-26T17:13:38.219Z,98688.38
2023-04-26T17:16:06.669Z,98690.31
2023-04-26T17:18:34.536Z,98694.78
2023-04-26T17:21:03.781Z,98693.88
2023-04-26T17:23:32.884Z,98700.34
2023-04-26T17:26:01.321Z,98707.78
2023-04-26T17:28:32.234Z,98691.75
2023-04-26T17:31:00.255Z,98690.84
2023-04-26T17:33:28.042Z,98700.81
2023-04-26T17:35:56.106Z,98702.44
2023-04-26T17:38:25.243Z,98707.50
2023-04-26T17:40:54.312Z,98709.84
2023-04-26T17:43:22.645Z,98699.59
2023-04-26T17:45:50.428Z,98701.78
2023-04-26T17:48:18.309Z,98712.56
2023-04-26T17:50:46.109Z,98706.78
2023-04-26T17:53:14.066Z,98712.81
2023-04-26T17:55:43.498Z,98716.75
2023-04-26T17:58:11.496Z,98719.19
2023-04-26T18:00:39.259Z,98712.03
2023-04-26T18:03:07.971Z,98718.78
2023-04-26T18:05:35.919Z,98708.03
2023-04-26T18:08:04.185Z,98715.22
2023-04-26T18:10:31.991Z,98725.09
2023-04-26T18:13:01.084Z,98725.47
2023-04-26T18:15:28.935Z,98723.13
2023-04-26T18:17:56.786Z,98721.94
2023-04-26T18:20:24.858Z,98728.91
2023-04-26T18:22:52.644Z,98720.63
2023-04-26T18:25:20.952Z,98727.28
2023-04-26T18:27:48.803Z,98731.56
2023-04-26T18:30:18.372Z,98737.72
2023-04-26T18:32:46.215Z,98743.53
2023-04-26T18:35:14.050Z,98739.56
2023-04-26T18:37:42.087Z,98742.16
2023-04-26T18:40:10.859Z,98747.03
2023-04-26T18:42:38.910Z,98751.44
2023-04-26T18:45:07.901Z,98752.25
2023-04-26T18:47:37.285Z,98750.91
2023-04-26T18:50:05.740Z,98756.59
2023-04-26T18:52:33.505Z,98755.53
2023-04-26T18:55:01.330Z,98760.28
2023-04-26T18:57:29.278Z,98758.00
2023-04-26T18:59:59.040Z,98764.34
2023-04-26T19:02:27.013Z,98768.34
2023-04-26T19:04:57.598Z,98766.00
2023-04-26T19:07:25.879Z,98768.72
2023-04-26T19:09:55.065Z,98771.00
2023-04-26T19:12:24.481Z,98782.13
2023-04-26T19:14:52.426Z,98782.63
2023-04-26T19:17:20.215Z,98780.47
2023-04-26T19:19:51.480Z,98777.38
2023-04-26T19:22:20.685Z,98776.66
2023-04-26T19:24:50.029Z,98787.25
2023-04-26T19:27:17.960Z,98784.88
2023-04-26T19:29:46.071Z,98797.22
2023-04-26T19:32:14.486Z,98790.81
2023-04-26T19:34:42.288Z,98793.19
2023-04-26T19:37:10.193Z,98794.06
2023-04-26T19:39:39.287Z,98802.78
2023-04-26T19:42:07.200Z,98805.56
2023-04-26T19:44:34.930Z,98807.97
2023-04-26T19:47:03.461Z,98811.53
2023-04-26T19:49:31.402Z,98805.19
2023-04-26T19:51:59.294Z,98805.59
2023-04-26T19:54:27.134Z,98803.59
2023-04-26T19:56:56.340Z,98809.16
2023-04-26T19:59:24.048Z,98804.38
2023-04-26T20:01:53.909Z,98803.94
2023-04-26T20:04:22.014Z,98810.69
2023-04-26T20:06:49.922Z,98804.66
2023-04-26T20:09:17.699Z,98811.75
2023-04-26T20:11:45.464Z,98815.56
2023-04-26T20:14:14.580Z,98816.69
2023-04-26T20:16:42.513Z,98812.69
2023-04-26T20:19:13.507Z,98816.09
2023-04-26T20:21:41.334Z,98815.25
2023-04-26T20:24:09.605Z,98813.03
2023-04-26T20:26:37.523Z,98806.63
2023-04-26T20:29:05.617Z,98800.19
2023-04-26T20:31:35.178Z,98816.44
2023-04-26T20:34:03.184Z,98809.44
2023-04-26T20:36:31.011Z,98819.94
2023-04-26T20:38:59.049Z,98820.41
2023-04-26T20:41:26.798Z,98818.38
2023-04-26T20:43:54.957Z,98812.91
2023-04-26T20:46:22.945Z,98820.25
2023-04-26T20:48:52.008Z,98817.38
2023-04-26T20:51:19.779Z,98813.81
2023-04-26T20:53:47.530Z,98823.28
2023-04-26T20:56:15.474Z,98826.75
2023-04-26T20:58:43.249Z,98814.69
2023-04-26T21:01:11.436Z,98815.88
2023-04-26T21:03:39.587Z,98827.03
2023-04-26T21:06:08.822Z,98827.47
2023-04-26T21:08:37.055Z,98819.47
2023-04-26T21:11:05.462Z,98824.81
2023-04-26T21:13:33.318Z,98817.81
2023-04-26T21:16:02.215Z,98818.75
2023-04-26T21:18:30.088Z,98808.66
2023-04-26T21:20:57.903Z,98818.53
2023-04-26T21:23:27.249Z,98817.00
2023-04-26T21:25:55.036Z,98817.94
2023-04-26T21:28:23.100Z,98821.72
2023-04-26T21:30:51.104Z,98813.53
2023-04-26T21:33:19.008Z,98816.75
2023-04-26T21:35:46.722Z,98817.38
2023-04-26T21:38:14.536Z,98820.50
2023-04-26T21:40:43.634Z,98820.25
2023-04-26T21:43:11.445Z,98817.94
2023-04-26T21:45:39.174Z,98822.38
2023-04-26T21:48:07.017Z,98826.34
2023-04-26T21:50:34.956Z,98818.25
2023-04-26T21:53:02.921Z,98817.34
2023-04-26T21:55:30.857Z,98825.03
2023-04-26T21:58:00.005Z,98824.69
2023-04-26T22:00:28.092Z,98823.59
2023-04-26T22:02:56.063Z,98836.06
2023-04-26T22:05:25.729Z,98827.25
2023-04-26T22:07:54.015Z,98835.84
2023-04-26T22:10:22.337Z,98833.56
2023-04-26T22:12:50.143Z,98826.19
2023-04-26T22:15:19.910Z,98834.66
2023-04-26T22:17:47.765Z,98833.03
2023-04-26T22:20:15.606Z,98831.66
2023-04-26T22:22:43.504Z,98830.16
2023-04-26T22:25:11.368Z,98823.34
2023-04-26T22:27:39.157Z,98827.00
2023-04-26T22:30:23.136Z,98828.13
2023-04-26T22:32:57.344Z,98828.66
2023-04-26T22:35:25.589Z,98826.59
2023-04-26T22:37:53.485Z,98829.69
2023-04-26T22:40:21.327Z,98829.84
2023-04-26T22:42:49.186Z,98826.50
2023-04-26T22:45:17.044Z,98837.56
2023-04-26T22:47:44.897Z,98831.00
2023-04-26T22:50:14.134Z,98844.59
2023-04-26T22:52:42.047Z,98837.97
2023-04-26T22:55:10.607Z,98839.78
2023-04-26T22:57:38.559Z,98846.09
2023-04-26T23:00:09.587Z,98840.56
2023-04-26T23:02:37.471Z,98844.97
2023-04-26T23:05:10.229Z,98842.63
2023-04-26T23:07:39.592Z,98844.31
2023-04-26T23:10:08.885Z,98846.09
2023-04-26T23:12:37.164Z,98858.84
2023-04-26T23:15:06.118Z,98857.56
2023-04-26T23:17:34.753Z,98848.38
2023-04-26T23:20:11.627Z,98847.16
2023-04-26T23:22:41.116Z,98852.09
2023-04-26T23:25:10.648Z,98842.13
2023-04-26T23:27:38.988Z,98850.28
2023-04-26T23:30:08.378Z,98847.91
2023-04-26T23:32:36.225Z,98844.88
2023-04-26T23:35:04.178Z,98840.34
2023-04-26T23:37:32.144Z,98856.81
2023-04-26T23:40:01.473Z,98845.66
2023-04-26T23:42:29.271Z,98848.50
2023-04-26T23:44:57.140Z,98851.91
2023-04-26T23:47:24.850Z,98847.19
2023-04-26T23:49:52.626Z,98854.00
2023-04-26T23:52:20.564Z,98847.03
2023-04-26T23:54:48.297Z,98852.22
2023-04-26T23:57:17.381Z,98848.88
2023-04-26T23:59:45.162Z,98846.97
